Roanoke, Ohio
Current Conditions -  °F | °C
As of 12:53 AM on Wednesday 22 Oct 2014 (Local Time) from KPHD Reporting Station
Overcast Overcast  
Wind Chill: 45°   Ceiling: 800
Heat Index: 48°   Visibility: 7mi
Dew Point: 46°   Wind: 6mph
Humidity: 93%   Direction: 320°NW
Pressure: 30.09"   Gusts: NA
Location:  40.3767°N, 81.2875°W
Report Text: KPHD 220453Z AUTO 32005KT 7SM BKN008 OVC012 09/08 A3009 RMK AO2 RAB31E46 CIG 005V010 SLP191 P0001 T00890078 401170083
Loading
Personal Weather Stations






























Interactive Weather Map New forecast layout! Learn more

10-Day Weather Forecast

Advertisements
Track Severe Weather on mobile